SondeTracker

Meteorological Radiosondes Database

Operations

Sounding was ended - last measurement: 2022-12-06 12:09:49z

MAP
About Radiosonde

Number: U3534509

Launch Site: Shearwater [NS] (CA)

Type: RS41

AUX: NO

Frequency: 403.001 MHz

Max Speed: 72 km/h at 12010 m

Average Speed: 42.14 km/h

Max Altitude: 12440 m

Average Ascent Speed: 3.75 m/s

Average Descent Speed: 0.00 m/s

Status: LOST

Status Changes
Launch Site Type AUX Frequency Status Finder Landing Point Description Changes made by
MHz LOST 0, 0 AUTO STATUS: Probably lost in the water [BOT]AUTO-STATUS - 2022-12-06 13:25:59z
APRS Statistics

Received Frames: 77

First Frame [UTC]: 2022-12-06 11:19:32z

Last Frame [UTC]: 2022-12-06 12:09:49z

Receivers: VE1RUS

Flight Time: 00:50:17 h

Distance From First Measurement: 24.28 km

Nearest City: [0.00 km]

Nearest Hunter: VE1DAY [22.14 km]

Ground Altitude: -123 m

Distance from QTH: 0.00 km

APRS Data
Receiver Number Date/Time [UTC] φ λ Course [°] Speed [km/h] Altitude [m] Description
VE1RUSU35345092022-12-06 12:09:4944.7182-63.2466805212440Clb=4.5m/s t=-62.8C h=12.9% p=-1.0hPa 403.001 MHz Type=RS41-SG ser=U3534509 Radiosonde
VE1RUSU35345092022-12-06 12:07:0744.7169-63.2574876712206Clb=3.4m/s t=-63.0C h=16.4% p=-1.0hPa 403.001 MHz Type=RS41-SG ser=U3534509 Radiosonde
VE1RUSU35345092022-12-06 12:05:5844.7169-63.2693927212010Clb=4.5m/s t=-63.5C h=23.4% p=-1.0hPa 403.001 MHz Type=RS41-SG ser=U3534509 Radiosonde
VE1RUSU35345092022-12-06 12:04:4044.717-63.2716937211974Clb=4.1m/s t=-64.0C h=25.8% p=-1.0hPa 403.001 MHz Type=RS41-SG ser=U3534509 Radiosonde
VE1RUSU35345092022-12-06 12:03:2144.7172-63.2805865611816Clb=3.1m/s t=-64.2C h=31.7% p=-1.0hPa 403.001 MHz Type=RS41-SG ser=U3534509 Radiosonde
VE1RUSU35345092022-12-06 12:02:1544.7171-63.2855886511714Clb=4.1m/s t=-64.6C h=36.0% p=-1.0hPa 403.001 MHz Type=RS41-SG ser=U3534509 Radiosonde
VE1RUSU35345092022-12-06 12:01:1044.7167-63.2919815411572Clb=5.1m/s t=-64.7C h=42.8% p=-1.0hPa 403.001 MHz Type=RS41-SG ser=U3534509 Radiosonde
VE1RUSU35345092022-12-06 11:59:5544.7164-63.2995896311421Clb=4.1m/s t=-64.5C h=45.5% p=-1.0hPa 403.001 MHz Type=RS41-SG ser=U3534509 Radiosonde
VE1RUSU35345092022-12-06 11:58:3344.7157-63.3052755611303Clb=3.4m/s t=-65.1C h=46.4% p=-1.0hPa 403.001 MHz Type=RS41-SG ser=U3534509 Radiosonde
VE1RUSU35345092022-12-06 11:57:1444.7151-63.3111865211167Clb=5.3m/s t=-64.6C h=47.5% p=-1.0hPa 403.001 MHz Type=RS41-SG ser=U3534509 Radiosonde
VE1RUSU35345092022-12-06 11:56:1044.7151-63.3171976311041Clb=2.9m/s t=-63.9C h=50.6% p=-1.0hPa 403.001 MHz Type=RS41-SG ser=U3534509 Radiosonde
VE1RUSU35345092022-12-06 11:55:0144.7158-63.3241946710923Clb=3.2m/s t=-63.1C h=50.4% p=-1.0hPa 403.001 MHz Type=RS41-SG ser=U3534509 Radiosonde
VE1RUSU35345092022-12-06 11:53:4744.7164-63.3309976110805Clb=4.4m/s t=-62.5C h=51.3% p=-1.0hPa 403.001 MHz Type=RS41-SG ser=U3534509 Radiosonde
VE1RUSU35345092022-12-06 11:52:2644.7172-63.3372995210690Clb=3.2m/s t=-61.8C h=51.6% p=-1.0hPa 403.001 MHz Type=RS41-SG ser=U3534509 Radiosonde
VE1RUSU35345092022-12-06 11:51:4544.7179-63.34331025210567Clb=3.7m/s t=-60.9C h=52.3% p=-1.0hPa 403.001 MHz Type=RS41-SG ser=U3534509 Radiosonde
VE1RUSU35345092022-12-06 11:51:0844.7189-63.34931015610443Clb=3.2m/s t=-59.9C h=54.3% p=-1.0hPa 403.001 MHz Type=RS41-SG ser=U3534509 Radiosonde
VE1RUSU35345092022-12-06 11:50:4744.7196-63.3557975410306Clb=4.7m/s t=-58.7C h=54.5% p=-1.0hPa 403.001 MHz Type=RS41-SG ser=U3534509 Radiosonde
VE1RUSU35345092022-12-06 11:50:1044.7199-63.3616915610172Clb=4.5m/s t=-57.6C h=53.8% p=-1.0hPa 403.001 MHz Type=RS41-SG ser=U3534509 Radiosonde
VE1RUSU35345092022-12-06 11:49:5744.72-63.3673935010034Clb=3.9m/s t=-56.4C h=53.3% p=-1.0hPa 403.001 MHz Type=RS41-SG ser=U3534509 Radiosonde
VE1RUSU35345092022-12-06 11:49:4844.7199-63.373188509901Clb=4.7m/s t=-55.4C h=53.7% p=-1.0hPa 403.001 MHz Type=RS41-SG ser=U3534509 Radiosonde
VE1RUSU35345092022-12-06 11:49:2444.72-63.378488449748Clb=4.6m/s t=-54.1C h=52.7% p=-1.0hPa 403.001 MHz Type=RS41-SG ser=U3534509 Radiosonde
VE1RUSU35345092022-12-06 11:48:5844.72-63.383585469606Clb=2.6m/s t=-52.9C h=52.0% p=-1.0hPa 403.001 MHz Type=RS41-SG ser=U3534509 Radiosonde
VE1RUSU35345092022-12-06 11:48:5044.7198-63.388184399466Clb=5.5m/s t=-51.6C h=47.0% p=-1.0hPa 403.001 MHz Type=RS41-SG ser=U3534509 Radiosonde
VE1RUSU35345092022-12-06 11:48:4744.7193-63.392380379333Clb=4.8m/s t=-50.3C h=44.2% p=-1.0hPa 403.001 MHz Type=RS41-SG ser=U3534509 Radiosonde
VE1RUSU35345092022-12-06 11:48:4444.7188-63.396481399208Clb=4.4m/s t=-49.2C h=41.8% p=-1.0hPa 403.001 MHz Type=RS41-SG ser=U3534509 Radiosonde
VE1RUSU35345092022-12-06 11:48:4244.7182-63.400779419086Clb=3.9m/s t=-48.1C h=42.3% p=-1.0hPa 403.001 MHz Type=RS41-SG ser=U3534509 Radiosonde
VE1RUSU35345092022-12-06 11:48:4044.7175-63.404668338959Clb=4.4m/s t=-47.0C h=37.0% p=-1.0hPa 403.001 MHz Type=RS41-SG ser=U3534509 Radiosonde
VE1RUSU35345092022-12-06 11:48:3844.7166-63.408267398829Clb=4.5m/s t=-46.1C h=38.5% p=-1.0hPa 403.001 MHz Type=RS41-SG ser=U3534509 Radiosonde
VE1RUSU35345092022-12-06 11:48:3344.7152-63.411865358700Clb=4.3m/s t=-45.0C h=35.2% p=-1.0hPa 403.001 MHz Type=RS41-SG ser=U3534509 Radiosonde
VE1RUSU35345092022-12-06 11:47:3744.7139-63.415454468566Clb=4.1m/s t=-43.6C h=32.1% p=-1.0hPa 403.001 MHz Type=RS41-SG ser=U3534509 Radiosonde
VE1RUSU35345092022-12-06 11:46:3444.7127-63.41956358405Clb=5.2m/s t=-42.5C h=37.8% p=-1.0hPa 403.001 MHz Type=RS41-SG ser=U3534509 Radiosonde
VE1RUSU35345092022-12-06 11:45:3544.7113-63.422852378236Clb=5.3m/s t=-41.1C h=37.5% p=-1.0hPa 403.001 MHz Type=RS41-SG ser=U3534509 Radiosonde
VE1RUSU35345092022-12-06 11:44:3244.7097-63.426959528077Clb=6.6m/s t=-40.5C h=35.4% p=-1.0hPa 403.001 MHz Type=RS41-SG ser=U3534509 Radiosonde
VE1RUSU35345092022-12-06 11:43:3244.708-63.431561447927Clb=4.2m/s t=-39.4C h=34.4% p=-1.0hPa 403.001 MHz Type=RS41-SG ser=U3534509 Radiosonde
VE1RUSU35345092022-12-06 11:42:2544.706-63.435561507773Clb=4.9m/s t=-38.2C h=39.6% p=-1.0hPa 403.001 MHz Type=RS41-SG ser=U3534509 Radiosonde
VE1RUSU35345092022-12-06 11:41:2444.7041-63.440161547638Clb=6.7m/s t=-37.2C h=43.4% p=-1.0hPa 403.001 MHz Type=RS41-SG ser=U3534509 Radiosonde
VE1RUSU35345092022-12-06 11:40:2644.7022-63.444555597479Clb=4.7m/s t=-35.9C h=50.3% p=-1.0hPa 403.001 MHz Type=RS41-SG ser=U3534509 Radiosonde
VE1RUSU35345092022-12-06 11:39:4444.7-63.449262507338Clb=4.2m/s t=-34.7C h=57.0% p=-1.0hPa 403.001 MHz Type=RS41-SG ser=U3534509 Radiosonde
VE1RUSU35345092022-12-06 11:39:1544.698-63.454161467191Clb=4.4m/s t=-33.7C h=60.1% p=-1.0hPa 403.001 MHz Type=RS41-SG ser=U3534509 Radiosonde
VE1RUSU35345092022-12-06 11:38:4244.6964-63.459452597059Clb=7.1m/s t=-32.8C h=72.2% p=-1.0hPa 403.001 MHz Type=RS41-SG ser=U3534509 Radiosonde
VE1RUSU35345092022-12-06 11:38:1244.6945-63.464457486890Clb=5.0m/s t=-31.8C h=88.7% p=-1.0hPa 403.001 MHz Type=RS41-SG ser=U3534509 Radiosonde
VE1RUSU35345092022-12-06 11:37:4244.6924-63.468651436746Clb=5.5m/s t=-30.7C h=87.7% p=-1.0hPa 403.001 MHz Type=RS41-SG ser=U3534509 Radiosonde
VE1RUSU35345092022-12-06 11:37:0944.6902-63.472344436581Clb=4.1m/s t=-29.2C h=83.5% p=-1.0hPa 403.001 MHz Type=RS41-SG ser=U3534509 Radiosonde
VE1RUSU35345092022-12-06 11:36:3844.688-63.475439416426Clb=6.1m/s t=-28.1C h=54.1% p=-1.0hPa 403.001 MHz Type=RS41-SG ser=U3534509 Radiosonde
VE1RUSU35345092022-12-06 11:36:2844.6852-63.478130486285Clb=3.7m/s t=-27.1C h=13.3% p=-1.0hPa 403.001 MHz Type=RS41-SG ser=U3534509 Radiosonde
VE1RUSU35345092022-12-06 11:36:2644.6824-63.479819306136Clb=5.6m/s t=-26.2C h=5.0% p=-1.0hPa 403.001 MHz Type=RS41-SG ser=U3534509 Radiosonde
VE1RUSU35345092022-12-06 11:36:2444.6806-63.482346415964Clb=6.4m/s t=-25.0C h=5.4% p=-1.0hPa 403.001 MHz Type=RS41-SG ser=U3534509 Radiosonde
VE1RUSU35345092022-12-06 11:36:1844.6787-63.485252395826Clb=6.2m/s t=-23.8C h=6.3% p=-1.0hPa 403.001 MHz Type=RS41-SG ser=U3534509 Radiosonde
VE1RUSU35345092022-12-06 11:35:4444.6767-63.488755435676Clb=4.1m/s t=-22.7C h=6.2% p=-1.0hPa 403.001 MHz Type=RS41-SG ser=U3534509 Radiosonde
VE1RUSU35345092022-12-06 11:34:5044.6748-63.492571375536Clb=5.0m/s t=-21.8C h=8.3% p=-1.0hPa 403.001 MHz Type=RS41-SG ser=U3534509 Radiosonde
VE1RUSU35345092022-12-06 11:33:5144.6727-63.496564315371Clb=5.7m/s t=-20.5C h=8.4% p=-1.0hPa 403.001 MHz Type=RS41-SG ser=U3534509 Radiosonde
VE1RUSU35345092022-12-06 11:32:5544.6704-63.500138595211Clb=7.9m/s t=-19.6C h=18.8% p=-1.0hPa 403.001 MHz Type=RS41-SG ser=U3534509 Radiosonde
VE1RUSU35345092022-12-06 11:31:5944.6678-63.50455565059Clb=6.5m/s t=-18.6C h=18.5% p=-1.0hPa 403.001 MHz Type=RS41-SG ser=U3534509 Radiosonde
VE1RUSU35345092022-12-06 11:31:2744.6656-63.507666464905Clb=5.8m/s t=-17.5C h=18.6% p=-1.0hPa 403.001 MHz Type=RS41-SG ser=U3534509 Radiosonde
VE1RUSU35345092022-12-06 11:31:1344.6631-63.511428304696Clb=6.6m/s t=-15.6C h=16.1% p=-1.0hPa 403.001 MHz Type=RS41-SG ser=U3534509 Radiosonde
VE1RUSU35345092022-12-06 11:31:1144.6616-63.513733414556Clb=5.3m/s t=-14.3C h=14.8% p=-1.0hPa 403.001 MHz Type=RS41-SG ser=U3534509 Radiosonde
VE1RUSU35345092022-12-06 11:31:0244.6592-63.51737244364Clb=5.4m/s t=-12.6C h=13.2% p=-1.0hPa 403.001 MHz Type=RS41-SG ser=U3534509 Radiosonde
VE1RUSU35345092022-12-06 11:30:1644.6579-63.519334304226Clb=6.9m/s t=-11.4C h=11.4% p=-1.0hPa 403.001 MHz Type=RS41-SG ser=U3534509 Radiosonde
VE1RUSU35345092022-12-06 11:29:2644.6564-63.522670374053Clb=6.5m/s t=-10.5C h=8.5% p=-1.0hPa 403.001 MHz Type=RS41-SG ser=U3534509 Radiosonde
VE1RUSU35345092022-12-06 11:28:3244.6554-63.52690333883Clb=5.1m/s t=-9.6C h=7.9% p=-1.0hPa 403.001 MHz Type=RS41-SG ser=U3534509 Radiosonde
VE1RUSU35345092022-12-06 11:27:5044.6543-63.52969313719Clb=7.1m/s t=-8.2C h=7.4% p=-1.0hPa 403.001 MHz Type=RS41-SG ser=U3534509 Radiosonde
VE1RUSU35345092022-12-06 11:27:2044.6537-63.532297263556Clb=6.7m/s t=-7.4C h=8.0% p=-1.0hPa 403.001 MHz Type=RS41-SG ser=U3534509 Radiosonde
VE1RUSU35345092022-12-06 11:26:4744.6535-63.53548263390Clb=3.4m/s t=-6.2C h=8.2% p=-1.0hPa 403.001 MHz Type=RS41-SG ser=U3534509 Radiosonde
VE1RUSU35345092022-12-06 11:26:1944.6527-63.537682263227Clb=4.7m/s t=-5.8C h=19.8% p=-1.0hPa 403.001 MHz Type=RS41-SG ser=U3534509 Radiosonde
VE1RUSU35345092022-12-06 11:26:1844.652-63.53899153058Clb=5.5m/s t=-4.8C h=21.4% p=-1.0hPa 403.001 MHz Type=RS41-SG ser=U3534509 Radiosonde
VE1RUSU35345092022-12-06 11:25:5244.6504-63.539810262854Clb=8.0m/s t=-3.1C h=19.1% p=-1.0hPa 403.001 MHz Type=RS41-SG ser=U3534509 Radiosonde
VE1RUSU35345092022-12-06 11:25:0344.649-63.539727152702Clb=5.4m/s t=-2.4C h=19.9% p=-1.0hPa 403.001 MHz Type=RS41-SG ser=U3534509 Radiosonde
VE1RUSU35345092022-12-06 11:24:1644.6474-63.540133262555Clb=4.1m/s t=-1.4C h=20.5% p=-1.0hPa 403.001 MHz Type=RS41-SG ser=U3534509 Radiosonde
VE1RUSU35345092022-12-06 11:23:4144.6457-63.5402334112359Clb=6.1m/s t=-0.2C h=21.0% p=-1.0hPa 403.001 MHz Type=RS41-SG ser=U3534509 Radiosonde
VE1RUSU35345092022-12-06 11:23:1044.6445-63.5397346112220Clb=6.0m/s t=0.3C h=27.6% p=-1.0hPa 403.001 MHz Type=RS41-SG ser=U3534509 Radiosonde
VE1RUSU35345092022-12-06 11:22:3944.6431-63.539211202039Clb=4.2m/s t=1.1C h=31.8% p=-1.0hPa 403.001 MHz Type=RS41-SG ser=U3534509 Radiosonde
VE1RUSU35345092022-12-06 11:22:0844.6423-63.539313341886Clb=4.5m/s t=1.8C h=29.9% p=-1.0hPa 403.001 MHz Type=RS41-SG ser=U3534509 Radiosonde
VE1RUSU35345092022-12-06 11:21:5144.6413-63.5389336331704Clb=4.6m/s t=2.7C h=26.2% p=-1.0hPa 403.001 MHz Type=RS41-SG ser=U3534509 Radiosonde
VE1RUSU35345092022-12-06 11:21:2544.6392-63.538344331544Clb=5.8m/s t=-273.0C h=-1.0% p=-1.0hPa 403.001 MHz Type=RS41-SG ser=U3534509 Radiosonde
VE1RUSU35345092022-12-06 11:20:4444.6379-63.537329261423Clb=6.3m/s t=-273.0C h=-1.0% p=-1.0hPa 403.001 MHz Type=RS41-SG ser=U3534509 Radiosonde
VE1RUSU35345092022-12-06 11:20:0444.6372-63.5341279371266Clb=4.3m/s t=-273.0C h=-1.0% p=-1.0hPa 403.001 MHz Type=RS41-SG ser=U3534509 Radiosonde
VE1RUSU35345092022-12-06 11:19:3244.6363-63.5313302241117Clb=5.4m/s t=-273.0C h=-1.0% p=-1.0hPa 403.001 MHz Type=RS41 ser=U3534509 Radiosonde